DAAG/ALG METAR and TAF weather

Enter ICAO airport designator
Station Type Date Time Source
DAAG METAR 2020/03/31 21:30 UTC NOAA

DAAG 312130Z 14004KT 120V200 9999 FEW023 SCT086 16/13 Q1012


Station Type Date Time Source
DAAG Decoded METAR 2020/03/31 21:30 UTC NOAA

Dar-El-Beida, Algeria (DAAG) 36-43N 003-15E 25M
Mar 31, 2020 - 05:30 PM EDT / 2020.03.31 2130 UTC
Wind: from the SE (140 degrees) at 5 MPH (4 KT) (direction variable):0
Visibility: greater than 7 mile(s):0
Sky conditions: partly cloudy
Temperature: 60 F (16 C)
Dew Point: 55 F (13 C)
Relative Humidity: 82%
Pressure (altimeter): 29.88 in. Hg (1012 hPa)
ob: DAAG 312130Z 14004KT 120V200 9999 FEW023 SCT086 16/13 Q1012
cycle: 21

Station Type Date Time Source
DAAG TAF 2020/03/31 18:33 UTC NOAA

TAF TAF DAAG 311700Z 3118/0118 02006KT 9999 FEW023 SCT080 PROB30
TEMPO 3118/3122 VRB15G25KT 5000 -TSRA FEW026CB
TEMPO 0106/0118 FEW023TCU FEW026CB PROB30
TEMPO 0110/0116 5000 -RA FEW026CB

Example: see airport list